Maxwell, NM (87728)

8:29 PM MDT on October 01, 2014 (GMT -0600)
Raton Municipal-Crews | Change Station
CLOSE
Current Station
Airport
Location: Raton,
Elevation: 6352 ft
Nearby Weather Stations
Active Advisory: Special Statement

Elev 6352 ft 36.74 °N, 104.50 °W | Updated 36 minutes ago

Mostly Cloudy
Mostly Cloudy
61 °F
Feels Like 61 °F
N
20
Wind Variable Wind from WNW

Today
High -- | Low -- °F
--% Chance of Precip.
Yesterday
High -- | Low -- °F
Precip. -- in
6:53 AM 6:41 PM
First Quarter, 53% visible
Pressure 29.77 in
Visibility 10.0 miles
Clouds Few 9500 ft
Mostly Cloudy 12000 ft
Dew Point 30 °F
Humidity 31%
Rainfall 0.00 in
Snow Depth 21 in , 1 in , 0 in
UV 0 out of 12
Pollen 4.40 out of 12
Air Quality Not available.
Flu Activity Not available.
METAR KRTN 020153Z AUTO 30017KT 10SM FEW095 BKN120 16/M01 A2992 RMK AO2 WSHFT 0129 RAB23E34 SLP080 P0000 T01611011

More Conditions Fewer Conditions

Pressure 29.77 in
Visibility 10.0 miles
Clouds Few 9500 ft
Mostly Cloudy 12000 ft
Dew Point 30 °F
Humidity 31%
Rainfall 0.00 in
Snow Depth 21 in , 1 in , 0 in
UV 0 out of 12
Pollen 4.40 out of 12
Air Quality Not available.
Flu Activity Not available.
METAR KRTN 020153Z AUTO 30017KT 10SM FEW095 BKN120 16/M01 A2992 RMK AO2 WSHFT 0129 RAB23E34 SLP080 P0000 T01611011

More Conditions Fewer Conditions

Nowcast | as of 8:22 PM MDT on October 1, 2014

A few showers and isolated thunderstorms will continue over northern and west central New Mexico through this evening. Movement will be to the east at 35 mph. Rain will be mostly light with generally under a tenth of an inch...with up to one quarter inch in a few spots. Wind gusts could touch 50 mph along with pea size hail and dangerous cloud to ground lightning strikes with the strongest storms. Locations impacted through 10 PM include Standing Rock...Pueblo pintad0... Lindrith...canjillion...El Rito...Grenville...Capulin and Folsom.

×

10-Day Weather Forecast

Almanac

Astronomy

Oct. 01, 2014 Rise Set
Actual Time 6:53 AM MDT 6:41 PM MDT
Civil Twilight 6:27 AM MDT 7:07 PM MDT
Nautical Twilight 5:57 AM MDT 7:37 PM MDT
Astronomical Twilight 5:27 AM MDT 8:07 PM MDT
Moon 1:49 PM MDT (10/1) No Moon Set
Length of Visible Light 12h 39m
Length of Day
11h 48m
Tomorrow will be 2m 18s shorter.
First Quarter, 53% of the Moon is Illuminated
Today
First Quarter
Oct 8
Full
Oct 15
Last Quarter
Oct 23
New
Oct 30
First Quarter

Today's Extremes

State Highs State Lows

Community

WunderPhotos

Upload Photos

1,758,142 photos uploaded!

WunderBlogs® & News

Nearby

Snow Depth

Station Depth Elevation
Silver Creek Divide 21 in 9000 ft
Sierra Blanca 1 in 10280 ft
Elk Cabin 0 in 8210 ft
Bateman 0 in 9300 ft
Hopewell 0 in 10000 ft

Earthquake Activity

City Distance Mag. Time & Date
Trinidad, Colorado 41 miles 2.9 3:55 AM MDT
2014-09-30
Minimum magnitude displayed is 2.5.

Coastal Water Temperatures

Place Temperature
No Stations Reporting

Nearby Weather Stations